Time;durP1;ratioP1;P1;durP2;ratioP2;P2;SDS_P1;SDS_P2;PMS_P1;PMS_P2;Temp;Humidity;BMP_temperature;BMP_pressure;BME280_temperature;BME280_humidity;BME280_pressure;Samples;Min_cycle;Max_cycle;Signal;HPM_P1;HPM_P2
2022/07/01 15:23:10;;;;;;;4.63;1.73;;;;;;;35.80;27.97;100371.13;5138382;27;20434;-83
2022/07/01 15:25:39;;;;;;;1.63;1.50;;;;;;;35.91;28.56;100366.59;5115343;28;20043;-83
2022/07/01 15:28:07;;;;;;;1.42;1.33;;;;;;;35.80;27.76;100380.44;5116178;28;20047;-83
2022/07/01 15:30:36;;;;;;;4.55;1.67;;;;;;;35.77;28.88;100369.97;5101366;28;20032;-82
2022/07/01 15:33:05;;;;;;;2.13;1.60;;;;;;;35.69;28.38;100372.28;5116179;28;20486;-82
2022/07/01 15:35:35;;;;;;;2.17;1.70;;;;;;;35.45;28.82;100378.38;5121886;28;20044;-82
2022/07/01 15:38:05;;;;;;;3.72;1.90;;;;;;;35.24;28.67;100377.06;5109300;28;20652;-82
2022/07/01 15:40:34;;;;;;;2.63;1.90;;;;;;;35.06;28.31;100369.88;5118574;28;20047;-81
2022/07/01 15:43:06;;;;;;;2.50;1.83;;;;;;;34.83;28.69;100371.81;5129032;28;20059;-81
2022/07/01 15:45:35;;;;;;;2.08;1.55;;;;;;;34.78;28.19;100369.56;5129234;28;20494;-83
2022/07/01 15:48:08;;;;;;;2.05;1.90;;;;;;;34.69;28.62;100367.38;5128943;28;20059;-82
2022/07/01 15:50:42;;;;;;;1.67;1.52;;;;;;;34.63;29.43;100369.19;5092904;28;20055;-82
2022/07/01 15:53:13;;;;;;;2.03;1.73;;;;;;;34.52;27.61;100366.69;5129159;28;20398;-81
2022/07/01 15:55:43;;;;;;;2.35;1.15;;;;;;;34.49;26.07;100369.63;5117207;28;20486;-83
2022/07/01 15:58:12;;;;;;;3.42;1.27;;;;;;;34.37;25.75;100376.88;5128810;28;20059;-82
2022/07/01 16:00:42;;;;;;;1.42;1.33;;;;;;;34.19;25.49;100366.84;5127686;28;20047;-82
2022/07/01 16:33:26;;;;;;;2.13;1.63;;;;;;;32.96;25.59;100384.97;5107614;27;20400;-82
2022/07/01 16:36:03;;;;;;;1.02;1.02;;;;;;;33.12;26.19;100401.19;5089216;28;20036;-82
2022/07/01 16:38:55;;;;;;;2.40;1.00;;;;;;;33.07;24.19;100381.88;5096116;28;20529;-83
2022/07/01 16:41:39;;;;;;;1.17;1.00;;;;;;;33.14;24.43;100395.91;5103930;28;20075;-83
2022/07/01 16:44:10;;;;;;;1.13;0.98;;;;;;;33.08;23.95;100387.13;5103353;28;20043;-83
2022/07/01 16:46:44;;;;;;;1.10;1.00;;;;;;;33.16;25.48;100393.41;5099783;28;20119;-81
2022/07/01 16:49:20;;;;;;;0.75;0.75;;;;;;;33.13;25.18;100390.66;5101100;28;20055;-85
2022/07/01 16:52:00;;;;;;;6.28;1.38;;;;;;;33.04;26.62;100382.78;5104793;28;20508;-84
2022/07/01 16:54:32;;;;;;;1.23;1.02;;;;;;;33.04;25.32;100394.13;5099834;28;20494;-84
2022/07/01 16:57:03;;;;;;;1.10;1.00;;;;;;;32.95;26.36;100384.13;5099642;28;20039;-84
2022/07/01 16:59:34;;;;;;;1.30;0.90;;;;;;;32.90;25.91;100396.03;5104688;28;20441;-83
2022/07/01 17:02:04;;;;;;;1.25;0.85;;;;;;;32.88;25.60;100394.88;5101887;28;20101;-84
2022/07/01 17:04:33;;;;;;;2.70;1.30;;;;;;;32.94;25.83;100405.22;5087277;28;20055;-84
2022/07/01 17:07:02;;;;;;;1.02;0.90;;;;;;;32.90;25.83;100401.69;5088022;28;20509;-83
2022/07/01 17:09:31;;;;;;;9.50;4.38;;;;;;;32.76;26.68;100402.81;5087838;28;20059;-85
2022/07/01 17:12:01;;;;;;;5.25;2.55;;;;;;;32.77;28.64;100410.06;5085967;28;20048;-85
2022/07/01 17:14:30;;;;;;;6.10;3.15;;;;;;;32.69;25.35;100417.91;5086843;28;20514;-84
2022/07/01 17:16:58;;;;;;;14.38;8.52;;;;;;;32.66;25.82;100418.00;5087669;28;20398;-85
2022/07/01 17:19:26;;;;;;;4.65;3.08;;;;;;;32.67;27.51;100423.25;5087510;28;20040;-85
2022/07/01 17:22:01;;;;;;;5.38;2.67;;;;;;;32.64;28.22;100431.81;5087064;28;20048;-85
2022/07/01 17:24:29;;;;;;;4.45;2.58;;;;;;;32.54;27.89;100433.66;5086765;28;20055;-86
2022/07/01 17:27:23;;;;;;;2.80;2.50;;;;;;;32.45;28.75;100425.75;5086995;28;20538;-86
2022/07/01 17:30:04;;;;;;;3.42;2.47;;;;;;;32.59;27.13;100433.09;5086178;28;20040;-85
2022/07/01 17:32:54;;;;;;;3.95;1.90;;;;;;;32.57;27.28;100436.41;5077154;28;20055;-86
2022/07/01 17:35:24;;;;;;;4.72;2.72;;;;;;;32.53;28.14;100444.16;5086487;28;20067;-86
2022/07/01 17:37:57;;;;;;;6.03;2.10;;;;;;;32.51;28.73;100449.47;5093864;28;20054;-87
2022/07/01 17:40:35;;;;;;;4.82;3.38;;;;;;;32.54;27.46;100453.47;5098798;28;20050;-87
2022/07/01 17:43:05;;;;;;;2.30;2.10;;;;;;;32.53;28.63;100449.81;5092289;28;20047;-87
2022/07/01 17:45:40;;;;;;;4.18;2.40;;;;;;;32.49;28.81;100454.75;5090042;28;20040;-86
2022/07/01 17:48:09;;;;;;;5.28;3.13;;;;;;;32.44;27.93;100444.75;5083693;28;20039;-84
2022/07/01 17:50:39;;;;;;;4.97;3.78;;;;;;;32.25;28.82;100446.31;5083685;28;20055;-86
2022/07/01 17:53:08;;;;;;;12.27;6.93;;;;;;;32.13;27.42;100456.25;5087286;28;20182;-85
2022/07/01 17:55:40;;;;;;;7.28;4.75;;;;;;;32.07;27.41;100454.34;5083548;28;20502;-86
2022/07/01 17:58:09;;;;;;;6.18;3.55;;;;;;;31.96;28.35;100454.56;5098316;28;20564;-85
2022/07/01 18:00:38;;;;;;;4.60;2.50;;;;;;;32.01;31.01;100466.16;5083789;28;20044;-85
2022/07/01 18:03:08;;;;;;;9.82;2.80;;;;;;;31.97;35.40;100461.81;5087808;28;20063;-91
2022/07/01 18:05:38;;;;;;;7.25;2.78;;;;;;;31.61;38.04;100472.47;5094943;28;20062;-94
2022/07/01 18:08:07;;;;;;;6.32;3.03;;;;;;;31.53;38.64;100451.22;5063527;28;20502;-94
2022/07/01 18:10:55;;;;;;;8.52;2.97;;;;;;;31.35;39.20;100452.31;5081529;28;20402;-94
2022/07/01 18:13:38;;;;;;;4.30;2.42;;;;;;;30.87;40.40;100454.16;5082351;28;20047;-82
2022/07/01 18:16:11;;;;;;;5.90;3.42;;;;;;;30.96;40.48;100457.28;5086331;28;20067;-83
2022/07/01 18:18:48;;;;;;;2.85;2.55;;;;;;;30.93;40.73;100460.16;5074959;28;20443;-83
2022/07/01 18:21:23;;;;;;;7.43;4.18;;;;;;;30.97;40.67;100456.06;5070428;28;20056;-83
2022/07/01 18:24:11;;;;;;;5.28;2.40;;;;;;;31.03;40.59;100462.00;5069948;28;20411;-84
2022/07/01 18:26:46;;;;;;;5.97;2.53;;;;;;;30.89;41.05;100462.22;5070925;28;20487;-85
2022/07/01 18:29:16;;;;;;;7.57;6.53;;;;;;;30.68;41.46;100464.06;5075137;28;20036;-85
2022/07/01 18:31:45;;;;;;;9.65;5.80;;;;;;;30.75;41.46;100469.69;5073712;28;20048;-85
2022/07/01 18:34:37;;;;;;;13.55;9.10;;;;;;;30.59;41.52;100464.56;5078614;28;20406;-84
2022/07/01 18:37:08;;;;;;;9.20;6.20;;;;;;;30.68;41.89;100472.53;5065295;28;20063;-84
2022/07/01 18:39:37;;;;;;;4.53;2.63;;;;;;;30.72;41.28;100476.16;5068371;28;20052;-85
2022/07/01 18:42:06;;;;;;;5.55;2.25;;;;;;;30.55;41.98;100477.97;5079741;28;20044;-84
2022/07/01 18:44:34;;;;;;;6.13;3.25;;;;;;;30.57;41.83;100473.50;5071140;28;20044;-84
2022/07/01 18:47:02;;;;;;;8.35;7.45;;;;;;;30.69;41.73;100485.47;5071670;28;20490;-85
2022/07/01 18:49:33;;;;;;;5.20;3.70;;;;;;;30.68;41.16;100484.69;5072000;28;20044;-84
2022/07/01 18:52:02;;;;;;;13.27;6.35;;;;;;;30.46;42.13;100480.47;5083568;28;20454;-84
2022/07/01 18:54:30;;;;;;;7.60;4.35;;;;;;;30.31;42.53;100481.44;5072192;28;20479;-85
2022/07/01 18:56:58;;;;;;;9.70;5.57;;;;;;;30.37;42.41;100492.25;5071730;28;20053;-84
2022/07/01 18:59:26;;;;;;;6.65;3.78;;;;;;;30.25;42.86;100491.56;5072553;28;20037;-84
2022/07/01 19:01:54;;;;;;;6.43;3.85;;;;;;;30.30;43.29;100495.97;5081366;28;20483;-84
2022/07/01 19:04:22;;;;;;;5.55;3.53;;;;;;;30.19;43.62;100487.59;5070812;28;20048;-84
2022/07/01 19:06:50;;;;;;;7.50;5.82;;;;;;;30.26;43.32;100500.84;5071893;28;20487;-84
2022/07/01 19:09:18;;;;;;;4.25;3.70;;;;;;;30.17;44.27;100499.31;5071857;28;20048;-84
2022/07/01 19:11:46;;;;;;;8.15;4.70;;;;;;;30.31;44.35;100509.66;5070907;28;20411;-85
2022/07/01 19:14:14;;;;;;;5.60;4.00;;;;;;;30.16;44.73;100511.03;5072027;28;20048;-84
2022/07/01 19:16:42;;;;;;;6.63;2.70;;;;;;;30.23;44.15;100513.78;5070610;28;20037;-84
2022/07/01 19:19:10;;;;;;;7.63;3.05;;;;;;;30.25;44.05;100516.97;5071782;28;20047;-84
2022/07/01 19:21:39;;;;;;;2.75;2.50;;;;;;;30.21;44.15;100523.88;5070289;28;20036;-84
2022/07/01 19:24:08;;;;;;;6.88;3.63;;;;;;;29.96;44.34;100522.84;5070889;28;20048;-84
2022/07/01 19:26:36;;;;;;;4.40;3.25;;;;;;;29.81;45.12;100527.81;5071445;28;20045;-84
2022/07/01 19:29:04;;;;;;;8.35;4.90;;;;;;;29.90;44.90;100535.78;5071713;28;20387;-84
2022/07/01 19:31:32;;;;;;;6.47;3.63;;;;;;;29.68;45.05;100530.34;5071319;28;20049;-84
2022/07/01 19:34:00;;;;;;;10.32;3.55;;;;;;;29.63;45.42;100548.47;5070614;28;20056;-84
2022/07/01 19:36:29;;;;;;;3.20;2.63;;;;;;;29.56;45.49;100542.09;5071484;28;20414;-84
2022/07/01 19:38:57;;;;;;;5.20;3.05;;;;;;;29.66;45.93;100560.94;5071989;28;20045;-84
2022/07/01 19:41:26;;;;;;;5.50;3.78;;;;;;;29.64;45.97;100549.28;5071558;28;20095;-84
2022/07/01 19:43:55;;;;;;;7.57;3.28;;;;;;;29.64;45.71;100550.09;5070415;28;20510;-84
2022/07/01 19:46:26;;;;;;;3.75;2.80;;;;;;;29.66;45.43;100555.31;5070058;28;20048;-84
2022/07/01 19:48:54;;;;;;;7.70;2.70;;;;;;;29.56;46.12;100567.47;5071073;28;20533;-84
2022/07/01 19:51:23;;;;;;;3.65;2.90;;;;;;;29.44;46.99;100555.44;5078582;28;20513;-84
2022/07/01 19:53:55;;;;;;;4.95;3.22;;;;;;;29.43;46.51;100575.56;5091105;28;20044;-84
2022/07/01 19:56:23;;;;;;;8.43;4.18;;;;;;;29.55;46.25;100580.75;5091477;28;20044;-84
2022/07/01 19:58:52;;;;;;;10.32;3.92;;;;;;;29.58;46.67;100584.78;5091571;28;20044;-83
2022/07/01 20:01:20;;;;;;;7.75;4.05;;;;;;;29.49;46.25;100591.69;5091183;28;20391;-84
2022/07/01 20:03:48;;;;;;;6.03;5.28;;;;;;;29.48;46.72;100606.97;5091372;28;20044;-84
2022/07/01 20:06:17;;;;;;;7.10;3.92;;;;;;;29.34;46.83;100605.00;5090404;28;20048;-83
2022/07/01 20:08:45;;;;;;;4.28;2.72;;;;;;;29.25;47.49;100610.28;5096671;28;20048;-84
2022/07/01 20:11:13;;;;;;;8.80;5.90;;;;;;;29.12;47.77;100615.56;5087514;28;20040;-83
2022/07/01 20:13:41;;;;;;;7.93;4.40;;;;;;;29.14;47.83;100615.16;5091198;28;20047;-83
2022/07/01 20:16:09;;;;;;;8.98;5.03;;;;;;;28.92;48.24;100618.84;5090384;28;20055;-83
2022/07/01 20:18:37;;;;;;;9.40;5.05;;;;;;;28.63;49.29;100618.88;5091296;28;20040;-83
2022/07/01 20:21:05;;;;;;;4.55;4.15;;;;;;;28.52;49.43;100604.81;5091085;28;20044;-83
2022/07/01 20:23:34;;;;;;;6.95;4.78;;;;;;;28.65;49.71;100618.47;5076992;28;20055;-84
2022/07/01 20:26:02;;;;;;;7.78;4.65;;;;;;;28.63;49.83;100621.69;5083205;28;20039;-83
2022/07/01 20:28:30;;;;;;;13.98;8.25;;;;;;;28.82;49.63;100625.25;5091122;28;20502;-83
2022/07/01 20:30:58;;;;;;;5.05;3.85;;;;;;;28.70;48.80;100627.28;5080031;28;20041;-83
2022/07/01 20:33:26;;;;;;;9.98;6.35;;;;;;;28.51;49.47;100622.09;5068229;28;20060;-84
2022/07/01 20:35:54;;;;;;;10.70;7.85;;;;;;;28.54;49.73;100638.19;5070772;28;20041;-83
2022/07/01 20:38:22;;;;;;;14.07;8.40;;;;;;;28.64;49.11;100634.53;5069877;28;20056;-83
2022/07/01 20:40:50;;;;;;;7.45;5.53;;;;;;;28.70;48.68;100637.78;5070820;28;20045;-83
2022/07/01 20:43:22;;;;;;;5.53;3.70;;;;;;;28.55;48.27;100645.44;5070790;28;20060;-84
2022/07/01 20:45:50;;;;;;;8.82;5.10;;;;;;;28.63;46.92;100649.84;5070880;28;20375;-83
2022/07/01 20:48:18;;;;;;;8.10;4.55;;;;;;;28.50;46.63;100640.19;5069837;28;20037;-83
2022/07/01 20:50:46;;;;;;;6.40;4.00;;;;;;;28.65;46.11;100646.63;5056485;28;20063;-84
2022/07/01 20:53:14;;;;;;;7.15;3.40;;;;;;;28.56;45.09;100656.28;5068901;28;20044;-82
2022/07/01 20:55:43;;;;;;;9.52;4.50;;;;;;;28.32;46.02;100657.06;5072726;28;20049;-83
2022/07/01 20:58:12;;;;;;;4.03;2.47;;;;;;;28.13;46.23;100661.84;5047320;28;20037;-84
2022/07/01 21:00:40;;;;;;;4.68;2.63;;;;;;;28.27;46.56;100661.09;5048711;28;20132;-84
2022/07/01 21:03:08;;;;;;;6.05;3.20;;;;;;;28.24;46.78;100668.34;5062672;28;20045;-90
2022/07/01 21:05:36;;;;;;;9.15;3.33;;;;;;;28.11;47.59;100664.28;5063798;28;20048;-91
2022/07/01 21:08:04;;;;;;;2.85;2.42;;;;;;;28.27;47.66;100672.34;5061254;28;20391;-93
2022/07/01 21:10:32;;;;;;;7.03;2.90;;;;;;;28.23;47.52;100671.53;5059948;28;20052;-90
2022/07/01 21:13:03;;;;;;;4.50;2.83;;;;;;;28.19;48.57;100676.34;5063628;28;20390;-90
2022/07/01 21:15:32;;;;;;;4.22;2.25;;;;;;;27.99;49.17;100677.50;5054442;28;20049;-88
2022/07/01 21:18:04;;;;;;;5.82;2.72;;;;;;;28.11;49.78;100681.94;5057005;28;20048;-90
2022/07/01 21:20:33;;;;;;;5.43;3.63;;;;;;;28.04;50.12;100676.31;5066870;28;20049;-96
2022/07/01 21:23:06;;;;;;;5.35;2.83;;;;;;;28.22;49.64;100687.63;5063406;28;20052;-94
2022/07/01 21:25:34;;;;;;;8.65;3.03;;;;;;;28.14;49.97;100677.53;5047216;28;20430;-95
2022/07/01 21:28:03;;;;;;;12.00;6.95;;;;;;;28.13;50.24;100689.97;5046812;28;20056;-94
2022/07/01 21:30:37;;;;;;;14.10;5.43;;;;;;;28.15;50.35;100685.56;5041373;28;20045;-93
2022/07/01 21:33:07;;;;;;;12.10;6.47;;;;;;;27.88;49.57;100685.13;5072066;28;20056;-93
2022/07/01 21:35:37;;;;;;;4.78;3.35;;;;;;;27.73;48.76;100690.72;5063173;28;20048;-93
2022/07/01 21:38:06;;;;;;;3.67;3.38;;;;;;;27.84;48.60;100696.34;5066919;28;20044;-94
2022/07/01 21:40:35;;;;;;;7.78;6.13;;;;;;;27.76;47.68;100689.91;5068146;28;20060;-94
2022/07/01 21:43:05;;;;;;;9.77;6.25;;;;;;;27.77;47.15;100702.75;5070120;28;20045;-94
2022/07/01 21:45:36;;;;;;;5.10;4.15;;;;;;;27.54;46.87;100700.22;5066964;28;20040;-95
2022/07/01 21:48:12;;;;;;;3.00;2.70;;;;;;;27.65;47.08;100699.50;5052793;28;20040;-95
2022/07/01 21:50:48;;;;;;;6.30;3.60;;;;;;;27.82;47.01;100704.38;5059347;28;20041;-96
2022/07/01 21:53:22;;;;;;;7.90;3.60;;;;;;;27.55;45.70;100701.84;5042533;28;20051;-93
2022/07/01 21:55:52;;;;;;;6.10;3.08;;;;;;;27.50;45.76;100716.25;5070084;28;20047;-94
2022/07/01 21:58:20;;;;;;;4.70;2.58;;;;;;;27.49;44.61;100714.66;5056435;28;20403;-94
2022/07/01 22:00:49;;;;;;;6.15;2.65;;;;;;;27.44;45.25;100718.66;5052343;28;20068;-94
2022/07/01 22:03:44;;;;;;;8.90;3.00;;;;;;;27.57;45.93;100721.91;5051613;28;20048;-93
2022/07/01 22:08:54;;;;;;;5.60;2.72;;;;;;;27.65;46.53;100716.38;5072956;28;20040;-82
2022/07/01 22:11:25;;;;;;;7.80;2.22;;;;;;;27.53;47.39;100709.88;5071231;28;20044;-82
2022/07/01 22:14:03;;;;;;;5.15;2.85;;;;;;;27.50;48.37;100719.06;5072440;28;20376;-83
2022/07/01 22:16:35;;;;;;;6.82;2.78;;;;;;;27.45;48.88;100714.66;5072080;28;20059;-83
2022/07/01 22:19:07;;;;;;;3.47;2.53;;;;;;;27.33;49.53;100729.81;5073070;28;20056;-82
2022/07/01 22:21:38;;;;;;;3.03;2.53;;;;;;;27.44;49.80;100729.06;5073022;28;20040;-82
2022/07/01 22:24:10;;;;;;;4.03;2.65;;;;;;;27.43;50.01;100738.72;5072369;28;20398;-83
2022/07/01 22:26:38;;;;;;;4.13;2.67;;;;;;;27.25;50.12;100739.41;5073124;28;20036;-83
2022/07/01 22:29:06;;;;;;;2.35;2.13;;;;;;;27.09;51.03;100736.91;5072904;28;20044;-83
2022/07/01 22:31:35;;;;;;;3.15;2.05;;;;;;;27.16;50.76;100738.94;5072571;28;20052;-83
2022/07/01 22:34:05;;;;;;;4.72;2.53;;;;;;;27.24;50.68;100735.00;5071987;28;20051;-83
2022/07/01 22:36:34;;;;;;;2.72;2.03;;;;;;;27.05;51.10;100736.88;5071406;28;20052;-83
2022/07/01 22:39:03;;;;;;;2.72;2.47;;;;;;;27.01;51.74;100744.47;5072735;28;20051;-83
2022/07/01 22:41:32;;;;;;;6.15;2.63;;;;;;;26.93;51.68;100746.41;5072850;28;20486;-82
2022/07/01 22:44:02;;;;;;;3.25;2.53;;;;;;;26.74;52.91;100747.44;5072751;28;20055;-83
2022/07/01 22:46:50;;;;;;;2.50;2.22;;;;;;;26.72;52.53;100744.22;5072174;28;20067;-83
2022/07/01 22:49:54;;;;;;;7.95;2.85;;;;;;;26.60;53.22;100748.13;5072533;28;20044;-83
2022/07/01 22:52:22;;;;;;;;;;;;;;;26.62;53.52;100750.53;5075010;28;20053;-83
2022/07/01 22:55:11;;;;;;;5.70;2.53;;;;;;;26.63;53.60;100752.16;5072187;28;19931;-83
2022/07/01 22:57:59;;;;;;;6.93;2.72;;;;;;;26.68;53.15;100751.78;5072318;28;20403;-83
2022/07/01 23:00:29;;;;;;;5.13;2.13;;;;;;;26.52;53.03;100750.06;5072444;28;20052;-83
2022/07/01 23:03:00;;;;;;;3.72;2.67;;;;;;;26.48;53.13;100754.81;5070712;28;20049;-83
2022/07/01 23:05:30;;;;;;;2.72;2.50;;;;;;;26.43;53.44;100757.97;5072056;28;20535;-82
2022/07/01 23:08:01;;;;;;;5.18;2.55;;;;;;;26.50;53.31;100763.69;5070533;28;20033;-82
2022/07/01 23:10:38;;;;;;;5.07;2.88;;;;;;;26.43;52.71;100746.75;5072377;28;20059;-82
2022/07/01 23:13:14;;;;;;;3.28;2.33;;;;;;;26.49;52.80;100755.63;5072143;28;20037;-82
2022/07/01 23:18:31;;;;;;;2.53;2.33;;;;;;;26.37;53.32;100753.91;5071639;28;20048;-82
2022/07/01 23:21:01;;;;;;;3.75;2.40;;;;;;;26.46;53.24;100760.00;5071789;28;20503;-82
2022/07/01 23:23:33;;;;;;;2.80;2.50;;;;;;;26.46;53.42;100753.59;5071581;28;20045;-82
2022/07/01 23:26:02;;;;;;;4.93;2.70;;;;;;;26.41;52.64;100755.56;5073527;28;20043;-82
2022/07/01 23:28:32;;;;;;;2.83;2.53;;;;;;;26.24;53.31;100759.78;5088634;28;20048;-81
2022/07/01 23:31:01;;;;;;;3.97;2.45;;;;;;;26.15;53.14;100762.06;5081551;28;20103;-82
2022/07/01 23:33:30;;;;;;;2.90;2.33;;;;;;;26.16;53.47;100761.66;5091906;28;20040;-82
2022/07/01 23:36:00;;;;;;;3.95;2.38;;;;;;;26.19;53.48;100765.69;5081236;28;20055;-82
2022/07/01 23:38:33;;;;;;;3.15;2.17;;;;;;;25.97;53.33;100770.25;5081158;28;20043;-82
2022/07/01 23:41:17;;;;;;;4.82;2.10;;;;;;;25.85;53.69;100754.50;5089302;28;20044;-82
2022/07/01 23:43:48;;;;;;;2.45;2.25;;;;;;;25.90;53.73;100760.56;5085797;28;20044;-81
2022/07/01 23:46:18;;;;;;;2.80;2.45;;;;;;;25.95;53.50;100761.44;5086488;28;20479;-82
2022/07/01 23:48:52;;;;;;;2.33;2.13;;;;;;;25.92;53.26;100767.78;5082795;28;20506;-81
2022/07/01 23:51:21;;;;;;;4.50;2.53;;;;;;;25.75;53.56;100751.19;5082134;28;20063;-82
2022/07/01 23:53:49;;;;;;;6.50;2.25;;;;;;;25.59;53.33;100747.75;5072357;28;20033;-82
2022/07/01 23:56:17;;;;;;;4.68;2.35;;;;;;;25.71;53.24;100752.34;5071535;28;20048;-82
2022/07/01 23:58:45;;;;;;;3.95;2.47;;;;;;;25.83;52.67;100749.28;5070204;28;20399;-82
